Time;durP1;ratioP1;P1;durP2;ratioP2;P2;SDS_P1;SDS_P2;PMS_P1;PMS_P2;Temp;Humidity;BMP_temperature;BMP_pressure;BME280_temperature;BME280_humidity;BME280_pressure;Samples;Min_cycle;Max_cycle;Signal;HPM_P1;HPM_P2
2023/01/14 00:00:24;;;;;;;15.77;3.10;;;7.60;99.90;;;;;;5070586;28;20037;-81
2023/01/14 00:02:50;;;;;;;17.52;2.88;;;7.50;99.90;;;;;;5069346;28;20093;-78
2023/01/14 00:05:15;;;;;;;17.20;2.83;;;7.60;99.90;;;;;;5024754;28;20101;-77
2023/01/14 00:07:41;;;;;;;18.30;3.30;;;7.60;99.90;;;;;;5042696;28;20049;-77
2023/01/14 00:10:08;;;;;;;17.48;2.97;;;7.60;99.90;;;;;;5056078;28;20048;-77
2023/01/14 00:12:33;;;;;;;16.08;2.80;;;7.60;99.90;;;;;;5077002;28;20075;-77
2023/01/14 00:14:59;;;;;;;14.88;2.78;;;7.50;99.90;;;;;;5059929;28;20491;-77
2023/01/14 00:17:25;;;;;;;16.35;3.20;;;7.60;99.90;;;;;;5076516;28;20055;-77
2023/01/14 00:19:50;;;;;;;17.02;2.95;;;7.60;99.90;;;;;;5075740;28;20051;-80
2023/01/14 00:22:16;;;;;;;15.05;3.05;;;7.60;99.90;;;;;;5059239;28;20450;-77
2023/01/14 00:24:42;;;;;;;17.27;3.10;;;7.60;99.90;;;;;;5075708;28;20109;-77
2023/01/14 00:27:08;;;;;;;16.08;3.08;;;7.50;99.90;;;;;;5062109;28;20049;-77
2023/01/14 00:29:35;;;;;;;17.58;2.88;;;7.50;99.90;;;;;;5042806;28;20117;-77
2023/01/14 00:32:04;;;;;;;16.35;2.90;;;7.50;99.90;;;;;;5076742;28;20040;-77
2023/01/14 00:34:31;;;;;;;20.63;2.90;;;7.50;99.90;;;;;;5055727;28;20056;-76
2023/01/14 00:36:58;;;;;;;16.42;3.08;;;7.50;99.90;;;;;;5064387;28;20048;-79
2023/01/14 00:39:24;;;;;;;13.82;2.65;;;7.50;99.90;;;;;;5041965;28;20074;-76
2023/01/14 00:41:50;;;;;;;20.23;3.35;;;7.40;99.90;;;;;;5076229;28;20056;-84
2023/01/14 00:44:19;;;;;;;15.50;2.92;;;7.40;99.90;;;;;;5075648;28;20044;-77
2023/01/14 00:46:45;;;;;;;14.48;2.92;;;7.30;99.90;;;;;;5068129;28;20059;-77
2023/01/14 00:49:20;;;;;;;13.52;2.60;;;7.30;99.90;;;;;;5069719;28;20408;-77
2023/01/14 00:51:47;;;;;;;18.17;3.00;;;7.40;99.90;;;;;;5076262;28;20373;-79
2023/01/14 00:54:14;;;;;;;18.38;3.05;;;7.40;99.90;;;;;;5061621;28;20063;-79
2023/01/14 00:56:40;;;;;;;15.73;2.83;;;7.40;99.90;;;;;;5061223;28;20071;-79
2023/01/14 00:59:08;;;;;;;15.68;2.78;;;7.40;99.90;;;;;;5093671;28;20439;-77
2023/01/14 01:01:34;;;;;;;16.38;3.00;;;7.40;99.90;;;;;;5059230;28;20071;-77
2023/01/14 01:04:02;;;;;;;21.60;3.30;;;7.40;99.90;;;;;;5063809;28;20044;-77
2023/01/14 01:06:27;;;;;;;15.10;3.10;;;7.40;99.90;;;;;;5073279;28;20048;-77
2023/01/14 01:09:01;;;;;;;17.90;2.85;;;7.50;99.90;;;;;;5057608;28;20039;-81
2023/01/14 01:11:27;;;;;;;14.05;2.55;;;7.50;99.90;;;;;;5075273;28;20056;-78
2023/01/14 01:13:54;;;;;;;16.38;2.72;;;7.50;99.90;;;;;;5071275;28;20066;-78
2023/01/14 01:16:23;;;;;;;16.75;2.95;;;7.50;99.90;;;;;;5075758;28;20075;-78
2023/01/14 01:18:55;;;;;;;14.63;2.95;;;7.50;99.90;;;;;;5045057;28;20047;-78
2023/01/14 01:21:22;;;;;;;17.40;2.80;;;7.50;99.90;;;;;;5059067;28;20058;-78
2023/01/14 01:23:48;;;;;;;18.10;3.00;;;7.50;99.90;;;;;;5054858;28;20294;-77
2023/01/14 01:26:19;;;;;;;15.10;2.88;;;7.50;99.90;;;;;;5073824;28;20080;-78
2023/01/14 01:28:51;;;;;;;15.68;2.65;;;7.40;99.90;;;;;;5073142;28;20040;-77
2023/01/14 01:31:17;;;;;;;16.10;2.93;;;7.40;99.90;;;;;;5073225;28;20100;-79
2023/01/14 01:33:43;;;;;;;12.75;2.63;;;7.40;99.90;;;;;;5074661;28;20056;-79
2023/01/14 01:36:14;;;;;;;15.60;2.88;;;7.40;99.90;;;;;;5058471;28;20048;-79
2023/01/14 01:38:39;;;;;;;15.30;2.63;;;7.40;99.90;;;;;;5092266;28;20036;-79
2023/01/14 01:41:05;;;;;;;18.65;2.80;;;7.40;99.90;;;;;;5071471;28;20441;-79
2023/01/14 01:43:32;;;;;;;16.88;3.13;;;7.40;99.90;;;;;;5073155;28;20101;-78
2023/01/14 01:46:00;;;;;;;18.23;3.05;;;7.40;99.90;;;;;;5071614;28;20080;-79
2023/01/14 01:48:33;;;;;;;18.63;3.30;;;7.30;99.90;;;;;;5073184;28;20484;-78
2023/01/14 01:51:29;;;;;;;21.40;3.30;;;7.30;99.90;;;;;;5073028;28;20048;-79
2023/01/14 01:53:57;;;;;;;15.35;3.03;;;7.30;99.90;;;;;;5070104;28;20064;-78
2023/01/14 01:56:27;;;;;;;16.17;2.97;;;7.20;99.90;;;;;;5059831;28;20549;-79
2023/01/14 01:58:53;;;;;;;18.38;3.30;;;7.30;99.90;;;;;;5091281;28;20495;-78
2023/01/14 02:01:20;;;;;;;17.35;3.05;;;7.30;99.90;;;;;;5055404;28;20076;-78
2023/01/14 02:03:48;;;;;;;20.80;3.40;;;7.30;99.90;;;;;;5074883;28;20048;-78
2023/01/14 02:06:15;;;;;;;17.98;3.00;;;7.30;99.90;;;;;;5064029;28;20403;-78
2023/01/14 02:08:47;;;;;;;17.92;3.40;;;7.30;99.90;;;;;;5069991;28;20486;-77
2023/01/14 02:11:25;;;;;;;15.35;3.03;;;7.30;99.90;;;;;;5064395;28;20564;-78
2023/01/14 02:14:25;;;;;;;18.58;3.58;;;7.30;99.90;;;;;;5043446;28;20095;-78
2023/01/14 02:17:20;;;;;;;18.40;3.40;;;7.30;99.90;;;;;;5093126;28;20059;-78
2023/01/14 02:19:51;;;;;;;15.13;3.10;;;7.30;99.90;;;;;;5074898;28;20127;-78
2023/01/14 02:22:20;;;;;;;17.00;3.35;;;7.30;99.90;;;;;;5043975;28;20064;-78
2023/01/14 02:25:20;;;;;;;20.27;3.58;;;7.30;99.90;;;;;;5055325;28;20418;-78
2023/01/14 02:28:10;;;;;;;19.33;3.05;;;7.20;99.90;;;;;;5065242;28;20056;-78
2023/01/14 02:31:16;;;;;;;20.83;3.65;;;7.20;99.90;;;;;;5073454;28;20094;-79
2023/01/14 02:33:52;;;;;;;19.27;3.20;;;7.20;99.90;;;;;;5063946;28;20514;-79
2023/01/14 02:36:48;;;;;;;19.05;3.38;;;7.20;99.90;;;;;;5074316;28;20059;-78
2023/01/14 02:39:21;;;;;;;19.33;3.25;;;7.20;99.90;;;;;;5062458;28;20385;-78
2023/01/14 02:45:07;;;;;;;17.70;3.15;;;7.20;99.90;;;;;;5076880;28;20079;-78
2023/01/14 02:47:35;;;;;;;16.83;3.38;;;7.20;99.90;;;;;;5078665;28;20051;-77
2023/01/14 02:50:02;;;;;;;18.70;3.85;;;7.20;99.90;;;;;;5077809;28;20059;-78
2023/01/14 02:52:28;;;;;;;18.40;3.33;;;7.20;99.90;;;;;;5078153;28;20109;-78
2023/01/14 02:55:03;;;;;;;19.98;3.30;;;7.20;99.90;;;;;;5062130;28;20060;-77
2023/01/14 02:57:37;;;;;;;21.25;3.53;;;7.20;99.90;;;;;;5058712;28;20477;-78
2023/01/14 03:00:34;;;;;;;18.58;3.30;;;7.20;99.90;;;;;;5071917;28;20055;-78
2023/01/14 03:03:09;;;;;;;18.25;3.20;;;7.20;99.90;;;;;;5053105;28;20063;-77
2023/01/14 03:05:51;;;;;;;14.60;2.90;;;7.10;99.90;;;;;;5041939;28;20047;-78
2023/01/14 03:08:20;;;;;;;;;;;7.20;99.90;;;;;;5062862;28;20044;-77
2023/01/14 03:10:58;;;;;;;18.25;3.10;;;7.30;99.90;;;;;;5081775;28;19973;-77
2023/01/14 03:13:40;;;;;;;17.73;3.15;;;7.20;99.90;;;;;;5064151;28;20136;-77
2023/01/14 03:16:18;;;;;;;19.05;3.13;;;7.20;99.90;;;;;;5057774;28;20519;-77
2023/01/14 03:18:50;;;;;;;17.63;3.08;;;7.10;99.90;;;;;;5071407;28;20040;-78
2023/01/14 03:21:25;;;;;;;18.10;3.08;;;7.20;99.90;;;;;;5057708;28;20045;-79
2023/01/14 03:24:03;;;;;;;20.27;3.30;;;7.10;99.90;;;;;;5071808;28;20051;-77
2023/01/14 03:26:32;;;;;;;20.00;3.20;;;7.20;99.90;;;;;;5074612;28;20123;-78
2023/01/14 03:29:00;;;;;;;14.80;3.10;;;7.20;99.90;;;;;;5052865;28;20048;-78
2023/01/14 03:31:29;;;;;;;14.02;3.22;;;7.20;99.90;;;;;;5057516;28;20067;-78
2023/01/14 03:34:02;;;;;;;17.05;3.33;;;7.20;99.90;;;;;;5068204;28;20064;-78
2023/01/14 03:36:32;;;;;;;15.63;2.92;;;7.10;99.90;;;;;;5048520;28;20082;-78
2023/01/14 03:39:13;;;;;;;16.67;2.92;;;7.00;99.90;;;;;;5074816;28;20067;-78
2023/01/14 03:44:32;;;;;;;16.42;2.97;;;6.90;99.90;;;;;;5072519;28;20459;-79
2023/01/14 03:46:58;;;;;;;15.53;2.80;;;6.80;99.90;;;;;;5076426;28;20058;-78
2023/01/14 03:49:24;;;;;;;15.18;3.17;;;6.80;99.90;;;;;;5053546;28;20052;-78
2023/01/14 03:52:02;;;;;;;16.45;3.08;;;6.70;99.90;;;;;;5057073;28;20045;-78
2023/01/14 03:54:43;;;;;;;15.05;2.80;;;6.70;99.90;;;;;;5062351;28;20139;-78
2023/01/14 03:57:11;;;;;;;19.42;3.22;;;6.60;99.90;;;;;;5076053;28;20058;-78
2023/01/14 03:59:48;;;;;;;19.27;3.40;;;6.50;99.90;;;;;;5056999;28;20044;-78
2023/01/14 04:02:15;;;;;;;14.35;2.65;;;6.50;99.90;;;;;;5071464;28;20062;-78
2023/01/14 04:04:44;;;;;;;16.77;2.75;;;6.40;99.90;;;;;;5087265;28;20063;-78
2023/01/14 04:07:10;;;;;;;16.00;2.75;;;6.40;99.90;;;;;;5069750;28;20051;-78
2023/01/14 04:09:35;;;;;;;18.50;3.30;;;6.40;99.90;;;;;;5070525;28;20048;-79
2023/01/14 04:12:01;;;;;;;15.32;2.92;;;6.40;99.90;;;;;;5067358;28;20052;-78
2023/01/14 04:17:11;;;;;;;16.02;3.10;;;6.40;99.90;;;;;;5067563;28;20051;-78
2023/01/14 04:19:37;;;;;;;16.45;2.97;;;6.40;99.90;;;;;;5059179;28;20063;-79
2023/01/14 04:22:02;;;;;;;14.77;3.00;;;6.40;99.90;;;;;;5039815;28;20056;-78
2023/01/14 04:24:28;;;;;;;16.45;3.30;;;6.40;99.90;;;;;;5070609;28;20052;-78
2023/01/14 04:26:54;;;;;;;13.80;2.83;;;6.30;99.90;;;;;;5076641;28;20104;-79
2023/01/14 04:29:20;;;;;;;18.10;3.10;;;6.30;99.90;;;;;;5059759;28;20032;-79
2023/01/14 04:31:46;;;;;;;18.50;3.50;;;6.30;99.90;;;;;;5067096;28;20427;-78
2023/01/14 04:34:11;;;;;;;15.98;3.03;;;6.30;99.90;;;;;;5070963;28;20048;-78
2023/01/14 04:36:37;;;;;;;17.42;3.30;;;6.30;99.90;;;;;;5076606;28;20055;-79
2023/01/14 04:39:03;;;;;;;18.02;3.22;;;6.30;99.90;;;;;;5058842;28;20055;-79
2023/01/14 04:44:12;;;;;;;21.92;3.90;;;6.30;99.90;;;;;;5069446;28;20412;-78
2023/01/14 04:46:38;;;;;;;17.67;3.67;;;6.40;99.90;;;;;;5076017;28;20048;-78
2023/01/14 04:49:04;;;;;;;22.00;4.13;;;6.30;99.90;;;;;;5039075;28;20059;-80
2023/01/14 04:51:29;;;;;;;21.92;3.78;;;6.20;99.90;;;;;;5039464;28;20378;-79
2023/01/14 04:53:55;;;;;;;18.77;3.97;;;6.30;99.90;;;;;;5038141;28;20045;-78
2023/01/14 04:56:21;;;;;;;17.48;4.07;;;6.20;99.90;;;;;;5075970;28;20136;-78
2023/01/14 04:58:47;;;;;;;21.85;4.13;;;6.10;99.90;;;;;;5058305;28;20053;-78
2023/01/14 05:01:12;;;;;;;22.65;3.78;;;6.10;99.90;;;;;;5094073;28;20048;-78
2023/01/14 05:03:38;;;;;;;21.08;3.80;;;6.10;99.90;;;;;;5091594;28;20047;-77
2023/01/14 05:06:05;;;;;;;22.00;4.35;;;6.10;99.90;;;;;;5075428;28;20131;-78
2023/01/14 05:08:30;;;;;;;22.40;4.13;;;6.10;99.90;;;;;;5067178;28;20507;-78
2023/01/14 05:10:56;;;;;;;25.38;4.55;;;6.10;99.90;;;;;;5075504;28;20032;-81
2023/01/14 05:13:22;;;;;;;22.30;4.13;;;6.00;99.90;;;;;;5058925;28;20055;-79
2023/01/14 05:15:48;;;;;;;25.90;4.10;;;6.00;99.90;;;;;;5075547;28;20044;-79
2023/01/14 05:18:15;;;;;;;20.27;3.97;;;6.00;99.90;;;;;;5074594;28;20498;-78
2023/01/14 05:20:42;;;;;;;20.10;3.45;;;6.00;99.90;;;;;;5075556;28;20123;-78
2023/01/14 05:23:13;;;;;;;17.23;3.42;;;6.00;99.90;;;;;;5074994;28;20056;-79
2023/01/14 05:25:39;;;;;;;20.70;4.10;;;6.10;99.90;;;;;;5075220;28;20048;-79
2023/01/14 05:28:09;;;;;;;23.52;4.15;;;6.00;99.90;;;;;;5060587;28;20532;-78
2023/01/14 05:30:35;;;;;;;24.70;4.43;;;6.00;99.90;;;;;;5075577;28;20052;-78
2023/01/14 05:33:01;;;;;;;20.98;4.78;;;6.00;99.90;;;;;;5061333;28;20044;-82
2023/01/14 05:35:27;;;;;;;26.92;4.70;;;6.00;99.90;;;;;;5055066;28;20075;-78
2023/01/14 05:37:53;;;;;;;22.90;4.63;;;6.00;99.90;;;;;;5058520;28;20055;-79
2023/01/14 05:40:19;;;;;;;22.17;4.72;;;6.00;99.90;;;;;;5058039;28;20040;-79
2023/01/14 05:45:38;;;;;;;20.48;4.80;;;6.00;99.90;;;;;;5060721;28;20474;-80
2023/01/14 05:48:05;;;;;;;25.33;5.45;;;6.00;99.90;;;;;;5075504;28;20048;-80
2023/01/14 05:50:31;;;;;;;21.83;4.38;;;6.00;99.90;;;;;;5058315;28;20054;-79
2023/01/14 05:52:56;;;;;;;25.73;5.28;;;6.00;99.90;;;;;;5058401;28;20127;-78
2023/01/14 05:55:22;;;;;;;24.67;5.18;;;5.90;99.90;;;;;;5041248;28;20536;-80
2023/01/14 05:57:48;;;;;;;23.77;5.35;;;5.90;99.90;;;;;;5063133;28;20047;-82
2023/01/14 06:08:32;;;;;;;31.48;6.10;;;5.90;99.90;;;;;;5066518;28;20472;-78
2023/01/14 06:10:59;;;;;;;30.27;6.38;;;5.90;99.90;;;;;;5053173;28;20173;-81
2023/01/14 06:13:25;;;;;;;28.75;5.20;;;5.90;99.90;;;;;;5055014;28;20079;-78
2023/01/14 06:15:52;;;;;;;33.63;6.50;;;5.90;99.90;;;;;;5071755;28;20056;-79
2023/01/14 06:18:22;;;;;;;27.83;5.78;;;5.90;99.90;;;;;;5048841;28;20052;-80
2023/01/14 06:20:52;;;;;;;30.35;6.28;;;5.80;99.90;;;;;;5072665;28;20044;-79
2023/01/14 06:23:19;;;;;;;25.35;5.47;;;5.80;99.90;;;;;;5077767;28;20052;-77
2023/01/14 06:25:46;;;;;;;29.20;5.43;;;5.80;99.90;;;;;;5064141;28;20044;-77
2023/01/14 06:28:13;;;;;;;29.30;5.88;;;5.80;99.90;;;;;;5075512;28;20044;-78
2023/01/14 06:30:39;;;;;;;32.10;6.28;;;5.80;99.90;;;;;;5075179;28;20048;-77
2023/01/14 06:33:06;;;;;;;25.95;5.63;;;5.90;99.90;;;;;;5064352;28;20075;-78
2023/01/14 06:35:39;;;;;;;34.30;5.85;;;5.80;99.90;;;;;;5078551;28;20087;-78
2023/01/14 06:38:05;;;;;;;26.95;5.75;;;5.80;99.90;;;;;;5061505;28;20048;-78
2023/01/14 06:40:31;;;;;;;32.83;5.68;;;5.80;99.90;;;;;;5061303;28;20040;-79
2023/01/14 06:42:56;;;;;;;31.13;5.65;;;5.80;99.90;;;;;;5078065;28;20127;-80
2023/01/14 06:45:23;;;;;;;28.38;5.32;;;5.80;99.90;;;;;;5063788;28;20514;-79
2023/01/14 06:47:50;;;;;;;26.35;5.10;;;5.80;99.90;;;;;;5072996;28;20488;-78
2023/01/14 06:50:18;;;;;;;26.88;5.75;;;5.80;99.90;;;;;;5062859;28;20087;-79
2023/01/14 06:52:44;;;;;;;28.13;4.93;;;5.80;99.90;;;;;;5074441;28;20040;-78
2023/01/14 06:55:10;;;;;;;29.80;5.85;;;5.90;99.90;;;;;;5059858;28;20044;-76
2023/01/14 06:57:36;;;;;;;27.40;5.28;;;5.90;99.90;;;;;;5060185;28;20126;-79
2023/01/14 07:00:03;;;;;;;29.58;5.32;;;5.90;99.90;;;;;;5041169;28;20128;-79
2023/01/14 07:02:29;;;;;;;34.08;5.30;;;5.90;99.90;;;;;;5060578;28;20492;-78
2023/01/14 07:04:54;;;;;;;37.22;6.50;;;5.90;99.90;;;;;;5071550;28;20094;-78
2023/01/14 07:07:20;;;;;;;31.05;5.18;;;5.90;99.90;;;;;;5066071;28;20048;-77
2023/01/14 07:09:46;;;;;;;27.17;5.22;;;5.90;99.90;;;;;;5073825;28;20366;-76
2023/01/14 07:12:11;;;;;;;28.65;5.13;;;6.00;99.90;;;;;;5079081;28;20047;-80
2023/01/14 07:14:37;;;;;;;33.47;5.47;;;6.00;99.90;;;;;;5054676;28;20052;-79
2023/01/14 07:17:03;;;;;;;34.55;6.10;;;6.00;99.90;;;;;;5065074;28;20044;-79
2023/01/14 07:19:29;;;;;;;30.13;5.38;;;5.90;99.90;;;;;;5062910;28;20048;-79
2023/01/14 07:21:55;;;;;;;37.25;6.07;;;6.00;99.90;;;;;;5072072;28;20059;-78
2023/01/14 07:24:21;;;;;;;27.80;5.55;;;6.00;99.90;;;;;;5067627;28;20048;-82
2023/01/14 07:26:46;;;;;;;34.70;6.13;;;6.00;99.90;;;;;;5067693;28;20055;-79
2023/01/14 07:29:12;;;;;;;29.58;5.53;;;6.00;99.90;;;;;;5064787;28;20048;-79
2023/01/14 07:31:38;;;;;;;29.92;6.00;;;6.00;99.90;;;;;;5045189;28;20063;-79
2023/01/14 07:34:04;;;;;;;31.52;5.82;;;6.00;99.90;;;;;;5065191;28;20049;-77
2023/01/14 07:36:29;;;;;;;28.98;5.68;;;6.10;99.90;;;;;;5067397;28;20407;-78
2023/01/14 07:38:55;;;;;;;30.02;5.40;;;6.10;99.90;;;;;;5064507;28;20051;-78
2023/01/14 07:41:22;;;;;;;32.63;5.35;;;6.10;99.90;;;;;;5072731;28;20040;-78
2023/01/14 07:43:48;;;;;;;28.55;5.88;;;6.10;99.90;;;;;;5069809;28;20067;-81
2023/01/14 07:46:18;;;;;;;30.25;4.72;;;6.10;99.90;;;;;;5072721;28;20044;-79
2023/01/14 07:48:44;;;;;;;27.70;5.60;;;6.20;99.90;;;;;;5063882;28;20040;-78
2023/01/14 07:51:12;;;;;;;31.30;5.70;;;6.20;99.90;;;;;;5076137;28;20048;-78
2023/01/14 07:53:38;;;;;;;28.10;5.00;;;6.20;99.90;;;;;;5062936;28;20052;-80
2023/01/14 07:56:06;;;;;;;29.15;5.30;;;6.20;99.90;;;;;;5074705;28;20048;-78
2023/01/14 07:58:33;;;;;;;26.77;5.28;;;6.20;99.90;;;;;;5060192;28;20099;-79
2023/01/14 08:01:04;;;;;;;27.48;5.60;;;6.20;99.90;;;;;;5073556;28;20366;-78
2023/01/14 08:03:29;;;;;;;24.48;5.25;;;6.20;99.90;;;;;;5074401;28;20507;-77
2023/01/14 08:05:55;;;;;;;25.00;4.95;;;6.30;99.90;;;;;;5047656;28;20068;-77
2023/01/14 08:08:21;;;;;;;28.48;5.68;;;6.30;99.90;;;;;;5014792;28;20393;-79
2023/01/14 08:10:47;;;;;;;25.95;5.03;;;6.30;99.90;;;;;;5018256;28;20045;-81
2023/01/14 08:13:13;;;;;;;32.97;5.20;;;6.30;99.90;;;;;;5022396;28;20183;-76
2023/01/14 08:15:39;;;;;;;17.35;3.88;;;6.40;99.90;;;;;;5027510;28;20405;-79
2023/01/14 08:18:05;;;;;;;24.42;4.90;;;6.30;99.90;;;;;;5028214;28;20051;-79
2023/01/14 08:20:31;;;;;;;24.45;4.00;;;6.40;99.90;;;;;;5023627;28;20047;-78
2023/01/14 08:23:00;;;;;;;26.25;5.20;;;6.40;99.90;;;;;;5035902;28;20045;-79
2023/01/14 08:25:27;;;;;;;23.88;4.15;;;6.40;99.90;;;;;;5046731;28;20497;-79
2023/01/14 08:27:54;;;;;;;21.65;4.25;;;6.50;99.90;;;;;;5043264;28;20048;-78
2023/01/14 08:30:20;;;;;;;22.33;3.95;;;6.50;99.90;;;;;;5057467;28;20481;-77
2023/01/14 08:32:48;;;;;;;28.30;4.57;;;6.50;99.90;;;;;;5023300;28;20055;-78
2023/01/14 08:35:13;;;;;;;19.05;3.53;;;6.50;99.90;;;;;;5035843;28;20092;-78
2023/01/14 08:37:41;;;;;;;25.88;4.80;;;6.60;99.90;;;;;;5044504;28;20092;-77
2023/01/14 08:40:08;;;;;;;22.83;4.18;;;6.60;99.90;;;;;;5037806;28;20045;-78
2023/01/14 08:42:33;;;;;;;21.95;4.10;;;6.60;99.90;;;;;;5038529;28;20059;-76
2023/01/14 08:44:59;;;;;;;25.65;4.35;;;6.60;99.90;;;;;;5047037;28;20048;-76
2023/01/14 08:47:27;;;;;;;24.48;4.20;;;6.60;99.90;;;;;;5042312;28;20393;-78
2023/01/14 08:49:53;;;;;;;25.13;4.28;;;6.60;99.90;;;;;;5026324;28;20044;-77
2023/01/14 08:52:19;;;;;;;23.92;4.35;;;6.50;99.90;;;;;;5044965;28;20102;-76
2023/01/14 08:54:44;;;;;;;29.02;4.20;;;6.60;99.90;;;;;;5044675;28;20040;-80
2023/01/14 08:57:10;;;;;;;28.52;4.68;;;6.80;99.90;;;;;;5045572;28;20123;-76
2023/01/14 08:59:36;;;;;;;17.90;3.30;;;6.50;99.90;;;;;;5044757;28;20049;-75
2023/01/14 09:02:02;;;;;;;22.38;4.28;;;6.60;99.90;;;;;;5044469;28;20116;-75
2023/01/14 09:04:27;;;;;;;23.02;4.05;;;6.60;99.90;;;;;;5035426;28;20045;-76
2023/01/14 09:17:59;;;;;;;19.27;3.15;;;6.60;99.90;;;;;;5044593;28;20139;-74
2023/01/14 09:20:30;;;;;;;21.17;3.83;;;6.70;99.90;;;;;;5047091;28;20058;-73
2023/01/14 09:22:58;;;;;;;23.17;4.13;;;6.60;99.90;;;;;;5046357;28;20053;-74
2023/01/14 09:25:23;;;;;;;25.02;4.07;;;6.70;99.90;;;;;;5059481;28;20118;-73
2023/01/14 09:27:49;;;;;;;19.92;4.28;;;6.60;99.90;;;;;;5042959;28;20448;-73
2023/01/14 09:30:15;;;;;;;11.90;2.30;;;6.60;99.90;;;;;;5044177;28;20041;-73
2023/01/14 09:32:41;;;;;;;18.48;3.53;;;6.70;99.90;;;;;;5047154;28;20713;-73
2023/01/14 09:35:07;;;;;;;17.73;3.97;;;6.70;99.90;;;;;;5040593;28;20050;-73
2023/01/14 09:37:33;;;;;;;24.63;4.30;;;6.70;99.90;;;;;;5042817;28;20091;-72
2023/01/14 09:40:00;;;;;;;14.85;3.70;;;6.70;99.90;;;;;;5032384;28;20081;-72
2023/01/14 09:42:34;;;;;;;21.23;4.50;;;6.70;99.90;;;;;;5025659;28;20037;-73
2023/01/14 09:45:21;;;;;;;13.15;2.75;;;6.70;99.90;;;;;;5031681;28;20056;-73
2023/01/14 09:47:47;;;;;;;20.08;3.88;;;6.80;99.90;;;;;;5009588;28;20485;-74
2023/01/14 09:50:20;;;;;;;16.17;4.25;;;6.80;99.90;;;;;;5025992;28;20045;-74
2023/01/14 09:53:30;;;;;;;16.98;4.15;;;6.80;99.90;;;;;;5029406;28;20049;-74
2023/01/14 09:56:07;;;;;;;17.75;3.58;;;6.80;99.90;;;;;;5041490;28;20400;-73
2023/01/14 09:58:39;;;;;;;16.35;3.60;;;6.80;99.90;;;;;;5041196;28;20098;-76
2023/01/14 10:01:29;;;;;;;15.73;3.08;;;6.80;99.90;;;;;;5044374;28;20735;-76
2023/01/14 10:04:32;;;;;;;16.98;3.30;;;6.90;99.90;;;;;;5038475;28;20057;-75
2023/01/14 10:06:59;;;;;;;15.57;3.38;;;6.90;99.90;;;;;;5047092;28;20056;-75
2023/01/14 10:09:34;;;;;;;6.35;1.85;;;6.90;99.90;;;;;;5037742;28;20110;-75
2023/01/14 10:12:04;;;;;;;14.38;3.45;;;7.00;99.90;;;;;;5042675;28;20076;-78
2023/01/14 10:14:54;;;;;;;15.70;3.60;;;7.00;99.90;;;;;;5020546;28;20052;-75
2023/01/14 10:17:24;;;;;;;18.70;4.13;;;6.90;99.90;;;;;;5038759;28;20053;-77
2023/01/14 10:19:52;;;;;;;17.67;3.85;;;6.90;99.90;;;;;;5043003;28;20052;-75
2023/01/14 10:22:41;;;;;;;14.05;3.88;;;6.90;99.90;;;;;;5045004;28;20079;-75
2023/01/14 10:25:18;;;;;;;17.20;4.22;;;6.90;99.90;;;;;;5024725;28;20444;-76
2023/01/14 10:27:54;;;;;;;13.70;3.80;;;6.90;99.90;;;;;;5037873;28;20059;-75
2023/01/14 10:30:28;;;;;;;13.70;3.85;;;7.00;99.90;;;;;;5050444;28;20499;-76
2023/01/14 10:32:54;;;;;;;12.18;4.13;;;6.90;99.90;;;;;;5025559;28;20041;-77
2023/01/14 10:35:31;;;;;;;11.68;3.45;;;7.00;99.90;;;;;;5033401;28;20520;-75
2023/01/14 10:37:57;;;;;;;17.60;5.30;;;7.10;99.90;;;;;;5025020;28;20489;-74
2023/01/14 10:40:25;;;;;;;13.73;5.35;;;7.00;99.90;;;;;;5048808;28;20045;-74
2023/01/14 10:42:53;;;;;;;16.63;5.75;;;6.90;99.90;;;;;;5044656;28;20525;-81
2023/01/14 10:45:19;;;;;;;14.02;5.00;;;6.90;99.90;;;;;;5051787;28;20047;-74
2023/01/14 10:47:47;;;;;;;17.05;6.40;;;6.90;99.90;;;;;;5045078;28;20110;-81
2023/01/14 10:50:25;;;;;;;14.88;5.28;;;6.90;99.90;;;;;;5045338;28;20052;-74
2023/01/14 10:52:53;;;;;;;10.93;4.10;;;7.00;99.90;;;;;;5047011;28;20106;-75
2023/01/14 10:55:28;;;;;;;15.30;4.80;;;7.10;99.90;;;;;;5062572;28;20052;-79
2023/01/14 10:58:14;;;;;;;10.85;4.50;;;7.10;99.90;;;;;;5046572;28;20053;-75
2023/01/14 11:00:49;;;;;;;8.80;3.22;;;7.20;99.90;;;;;;5042559;28;20080;-76
2023/01/14 11:03:26;;;;;;;12.38;4.00;;;7.30;99.90;;;;;;5037605;28;20060;-79
2023/01/14 11:06:13;;;;;;;10.02;3.63;;;7.30;99.90;;;;;;5048664;28;20060;-79
2023/01/14 11:08:48;;;;;;;11.85;3.78;;;7.30;99.90;;;;;;5064730;28;20114;-75
2023/01/14 11:11:19;;;;;;;10.48;3.90;;;7.30;99.90;;;;;;5046526;28;20045;-79
2023/01/14 11:13:48;;;;;;;11.43;3.70;;;7.30;99.90;;;;;;5031760;28;20045;-79
2023/01/14 11:16:27;;;;;;;11.35;3.22;;;7.40;99.90;;;;;;5044182;28;20043;-76
2023/01/14 11:19:16;;;;;;;8.40;3.25;;;7.50;99.90;;;;;;5045589;28;20048;-77
2023/01/14 11:21:58;;;;;;;10.15;3.28;;;7.50;99.90;;;;;;5030402;28;20041;-79
2023/01/14 11:24:59;;;;;;;9.35;2.67;;;7.60;99.90;;;;;;5053616;28;20500;-76
2023/01/14 11:27:27;;;;;;;9.95;2.80;;;7.50;99.90;;;;;;4990560;28;20068;-78
2023/01/14 11:29:56;;;;;;;9.65;2.75;;;7.60;99.90;;;;;;5035386;28;20088;-77
2023/01/14 11:32:26;;;;;;;6.05;1.92;;;7.60;99.90;;;;;;5045076;28;20045;-77
2023/01/14 11:35:00;;;;;;;7.65;2.08;;;7.70;99.90;;;;;;5033430;28;20055;-76
2023/01/14 11:37:34;;;;;;;6.30;1.90;;;7.70;99.90;;;;;;5060307;28;20053;-76
2023/01/14 11:40:01;;;;;;;9.85;2.30;;;7.70;99.90;;;;;;5031226;28;20080;-76
2023/01/14 11:42:27;;;;;;;8.02;1.80;;;7.80;99.90;;;;;;5043402;28;20041;-78
2023/01/14 11:44:58;;;;;;;6.90;1.83;;;7.80;99.90;;;;;;5062610;28;20051;-76
2023/01/14 11:47:26;;;;;;;5.85;1.60;;;7.80;99.90;;;;;;5051485;28;20052;-77
2023/01/14 11:50:24;;;;;;;5.15;1.65;;;7.70;99.90;;;;;;5041211;28;20049;-76
2023/01/14 11:52:58;;;;;;;6.43;2.10;;;7.80;99.90;;;;;;5023543;28;20096;-75
2023/01/14 11:55:27;;;;;;;6.80;2.00;;;7.80;99.90;;;;;;5036049;28;20059;-79
2023/01/14 11:57:53;;;;;;;8.27;2.30;;;7.80;99.90;;;;;;5037990;28;20151;-76
2023/01/14 12:00:21;;;;;;;8.07;2.40;;;7.90;99.90;;;;;;5055047;28;20040;-75
2023/01/14 12:02:58;;;;;;;6.10;1.88;;;7.80;99.90;;;;;;5037750;28;20127;-76
2023/01/14 12:05:24;;;;;;;6.85;1.73;;;7.80;99.90;;;;;;5043525;28;20485;-80
2023/01/14 12:07:53;;;;;;;9.07;1.98;;;8.00;99.90;;;;;;5035633;28;20413;-78
2023/01/14 12:10:32;;;;;;;8.25;2.30;;;7.90;99.90;;;;;;5039742;28;20110;-75
2023/01/14 12:19:30;;;;;;;6.57;2.00;;;7.90;99.90;;;;;;5053954;28;20052;-75
2023/01/14 12:22:20;;;;;;;7.00;2.30;;;7.90;99.90;;;;;;5033874;28;20052;-76
2023/01/14 12:25:23;;;;;;;8.20;2.20;;;8.00;99.90;;;;;;5033388;28;20048;-73
2023/01/14 12:28:12;;;;;;;6.97;2.13;;;8.00;99.90;;;;;;5044850;28;20059;-76
2023/01/14 12:31:09;;;;;;;7.93;2.28;;;8.00;99.90;;;;;;5038587;28;20048;-74
2023/01/14 12:33:46;;;;;;;6.82;1.98;;;8.10;99.90;;;;;;5036212;28;20053;-76
2023/01/14 12:36:19;;;;;;;4.22;1.60;;;8.10;99.90;;;;;;5034492;28;20444;-75
2023/01/14 12:47:46;;;;;;;5.03;1.63;;;8.20;99.90;;;;;;5048886;28;20048;-75
2023/01/14 12:50:15;;;;;;;7.05;2.10;;;8.20;99.90;;;;;;5034420;28;20057;-77
2023/01/14 12:52:51;;;;;;;6.50;2.33;;;8.20;99.90;;;;;;5041240;28;20059;-75
2023/01/14 12:55:27;;;;;;;6.32;2.17;;;8.20;99.90;;;;;;5035790;28;20122;-73
2023/01/14 12:57:54;;;;;;;6.68;2.20;;;8.20;99.90;;;;;;5039810;28;20045;-76
2023/01/14 13:00:32;;;;;;;7.05;2.10;;;8.20;99.90;;;;;;5033922;28;20049;-76
2023/01/14 13:03:03;;;;;;;8.88;2.25;;;8.20;99.90;;;;;;5041286;28;20159;-74
2023/01/14 13:05:37;;;;;;;6.07;2.27;;;8.30;99.90;;;;;;5053218;28;20049;-74
2023/01/14 13:08:07;;;;;;;5.70;1.63;;;8.20;99.90;;;;;;5044056;28;20049;-80
2023/01/14 13:10:36;;;;;;;5.90;1.90;;;8.40;99.90;;;;;;5036995;28;20061;-79
2023/01/14 13:13:36;;;;;;;5.07;1.80;;;8.40;99.90;;;;;;5051785;28;20033;-77
2023/01/14 13:16:23;;;;;;;5.53;1.90;;;8.40;99.90;;;;;;5037086;28;20979;-75
2023/01/14 13:18:57;;;;;;;4.18;1.80;;;8.40;99.90;;;;;;5041088;28;20551;-78
2023/01/14 13:21:59;;;;;;;5.22;1.83;;;8.40;99.90;;;;;;5040332;28;20048;-75
2023/01/14 13:24:44;;;;;;;6.28;1.80;;;8.50;99.90;;;;;;5052148;28;20131;-80
2023/01/14 13:27:46;;;;;;;5.18;1.80;;;8.60;99.90;;;;;;5046471;28;20044;-81
2023/01/14 13:30:18;;;;;;;6.77;1.97;;;8.60;99.90;;;;;;5009657;28;20084;-79
2023/01/14 13:33:08;;;;;;;5.22;1.70;;;8.60;99.90;;;;;;5058026;28;20755;-77
2023/01/14 13:35:36;;;;;;;5.72;1.73;;;8.60;99.90;;;;;;5035117;28;20113;-80
2023/01/14 13:38:19;;;;;;;5.45;1.80;;;8.60;99.90;;;;;;5036945;28;20366;-77
2023/01/14 13:41:06;;;;;;;5.63;1.42;;;8.70;99.90;;;;;;5045186;28;20041;-83
2023/01/14 13:43:37;;;;;;;6.07;1.67;;;8.70;99.90;;;;;;5045656;28;20061;-84
2023/01/14 13:46:06;;;;;;;4.78;1.50;;;8.70;99.90;;;;;;5035931;28;20101;-81
2023/01/14 13:48:35;;;;;;;4.22;1.40;;;8.80;99.90;;;;;;5055249;28;20167;-80
2023/01/14 13:51:30;;;;;;;4.97;1.63;;;8.80;99.90;;;;;;5044338;28;20110;-78
2023/01/14 13:54:06;;;;;;;4.22;1.27;;;8.90;99.90;;;;;;5031572;28;20086;-81
2023/01/14 13:56:32;;;;;;;4.55;1.48;;;8.90;99.90;;;;;;5045790;28;20497;-81